New Orleans, Louisiana
Traffic Map
Current Weather Conditions
New Orleans, Louisiana
Clear
Clear
73°
Feels Like: 73°
Wind Chill: 73° Ceiling: Unl
Heat Index: 73° Visibility: 10mi
Dew Point: 52° Wind: 5mph
Humidity: 47% Direction: 10° (N)
Pressure: 30.12in Gusts: 0mph
Raw Report DataKVSH 200335Z AUTO 01004KT 10SM CLR 23/11 A3012 RMK AO1
Traffic Incident Summary
Active as of:
Severity:
Category:
InformationThere was an issue retrieving the traffic information for this location. Please try a different location or try again shortly.
Advertisements
At Last! Intellicast now available for iPhone and Android